Time;durP1;ratioP1;P1;durP2;ratioP2;P2;SDS_P1;SDS_P2;PMS_P1;PMS_P2;Temp;Humidity;BMP_temperature;BMP_pressure;BME280_temperature;BME280_humidity;BME280_pressure;Samples;Min_cycle;Max_cycle;Signal;HPM_P1;HPM_P2
2023/04/16 00:00:25;;;;;;;15.57;5.72;;;20.50;58.60;;;;;;5037580;28;20614;-73
2023/04/16 00:02:50;;;;;;;15.48;6.72;;;20.50;59.50;;;;;;5067919;28;20413;-73
2023/04/16 00:05:16;;;;;;;32.70;8.07;;;20.50;58.50;;;;;;5069301;28;20170;-74
2023/04/16 00:07:42;;;;;;;13.82;6.47;;;20.50;58.30;;;;;;5080043;28;20024;-73
2023/04/16 00:10:08;;;;;;;15.15;6.57;;;20.40;58.20;;;;;;5097951;28;20370;-73
2023/04/16 00:12:34;;;;;;;30.33;5.82;;;20.40;58.30;;;;;;5061009;28;20062;-73
2023/04/16 00:14:59;;;;;;;17.73;6.30;;;20.40;58.40;;;;;;5096358;28;20028;-73
2023/04/16 00:17:25;;;;;;;14.75;6.28;;;20.40;58.40;;;;;;5077339;28;20077;-74
2023/04/16 00:19:51;;;;;;;12.07;6.00;;;20.40;58.30;;;;;;5063606;28;20532;-73
2023/04/16 00:22:17;;;;;;;10.35;6.32;;;20.40;58.30;;;;;;5063779;28;20374;-73
2023/04/16 00:24:42;;;;;;;13.32;6.57;;;20.40;58.40;;;;;;5065939;28;20083;-73
2023/04/16 00:27:08;;;;;;;12.13;5.65;;;20.40;58.50;;;;;;5049349;28;20085;-73
2023/04/16 00:29:34;;;;;;;13.20;5.65;;;20.40;58.50;;;;;;5065914;28;20040;-73
2023/04/16 00:32:00;;;;;;;11.02;5.22;;;20.40;58.40;;;;;;5048219;28;20111;-73
2023/04/16 00:34:26;;;;;;;18.85;6.35;;;20.30;58.30;;;;;;5062861;28;20127;-73
2023/04/16 00:36:52;;;;;;;10.02;5.20;;;20.40;58.40;;;;;;5064661;28;20024;-73
2023/04/16 00:39:18;;;;;;;12.63;5.68;;;20.40;58.50;;;;;;5063838;28;20466;-73
2023/04/16 00:41:45;;;;;;;11.00;5.30;;;20.40;58.30;;;;;;5083529;28;20028;-73
2023/04/16 00:44:11;;;;;;;9.20;5.35;;;20.40;58.30;;;;;;5049887;28;20070;-73
2023/04/16 00:46:37;;;;;;;8.80;5.95;;;20.40;58.40;;;;;;5082062;28;20048;-73
2023/04/16 00:49:03;;;;;;;11.70;5.70;;;20.40;58.30;;;;;;5060728;28;20060;-73
2023/04/16 00:51:30;;;;;;;11.38;5.55;;;20.30;58.30;;;;;;5072754;28;20071;-73
2023/04/16 00:53:56;;;;;;;9.27;5.70;;;20.40;58.30;;;;;;5055633;28;20032;-73
2023/04/16 00:56:23;;;;;;;8.88;5.45;;;20.40;58.40;;;;;;5073802;28;20056;-72
2023/04/16 00:58:49;;;;;;;11.23;6.00;;;20.40;58.50;;;;;;5055864;28;20115;-73
2023/04/16 01:01:17;;;;;;;12.32;6.00;;;20.40;58.50;;;;;;5055965;28;20035;-73
2023/04/16 01:03:45;;;;;;;11.27;5.63;;;20.30;58.70;;;;;;5072213;28;20028;-73
2023/04/16 01:06:11;;;;;;;11.30;5.78;;;20.40;58.50;;;;;;5055921;28;20021;-73
2023/04/16 01:08:38;;;;;;;7.72;5.18;;;20.40;58.50;;;;;;5055934;28;20028;-73
2023/04/16 01:11:04;;;;;;;8.52;5.15;;;20.40;58.60;;;;;;5054544;28;20174;-72
2023/04/16 01:13:30;;;;;;;12.35;6.45;;;20.30;58.60;;;;;;5051296;28;20024;-73
2023/04/16 01:15:56;;;;;;;14.18;5.18;;;20.30;58.60;;;;;;5054470;28;20028;-73
2023/04/16 01:18:24;;;;;;;9.38;4.93;;;20.40;58.40;;;;;;5074374;28;20028;-73
2023/04/16 01:20:50;;;;;;;16.92;5.50;;;20.30;58.70;;;;;;5051447;28;20634;-74
2023/04/16 01:23:17;;;;;;;12.13;6.07;;;20.30;58.60;;;;;;5038930;28;20028;-74
2023/04/16 01:25:44;;;;;;;12.23;5.57;;;20.40;58.90;;;;;;5038601;28;20039;-73
2023/04/16 01:28:10;;;;;;;12.82;5.25;;;20.40;58.90;;;;;;5055325;28;20490;-73
2023/04/16 01:30:36;;;;;;;11.63;5.95;;;20.30;58.80;;;;;;5052629;28;20089;-73
2023/04/16 01:33:20;;;;;;;13.20;5.72;;;20.30;58.80;;;;;;5050838;28;20103;-73
2023/04/16 01:35:46;;;;;;;9.98;5.32;;;20.30;59.00;;;;;;5077582;28;20027;-73
2023/04/16 01:38:14;;;;;;;9.15;5.50;;;20.30;58.80;;;;;;5053614;28;20032;-73
2023/04/16 01:40:40;;;;;;;29.25;5.90;;;20.40;58.90;;;;;;5054161;28;20021;-73
2023/04/16 01:43:06;;;;;;;10.65;5.07;;;20.30;59.00;;;;;;5055835;28;20039;-73
2023/04/16 01:45:32;;;;;;;10.48;4.90;;;20.30;59.10;;;;;;5043631;28;20525;-73
2023/04/16 01:47:58;;;;;;;9.68;5.18;;;20.40;59.10;;;;;;5053710;28;20470;-74
2023/04/16 01:50:24;;;;;;;10.80;5.30;;;20.30;58.90;;;;;;5077247;28;20030;-73
2023/04/16 01:52:50;;;;;;;10.18;5.25;;;20.30;58.90;;;;;;5048488;28;20405;-73
2023/04/16 01:55:16;;;;;;;12.70;4.80;;;20.30;58.90;;;;;;5052377;28;20474;-73
2023/04/16 01:57:42;;;;;;;11.10;5.57;;;20.30;58.90;;;;;;5053873;28;20037;-73
2023/04/16 02:00:08;;;;;;;10.27;5.20;;;20.30;58.80;;;;;;5051024;28;20029;-73
2023/04/16 02:02:44;;;;;;;10.02;5.50;;;20.30;58.80;;;;;;5055256;28;20028;-74
2023/04/16 02:05:13;;;;;;;7.88;5.00;;;20.30;58.90;;;;;;5037866;28;20112;-73
2023/04/16 02:07:39;;;;;;;15.50;5.25;;;20.30;58.90;;;;;;5037111;28;20115;-73
2023/04/16 02:10:06;;;;;;;8.80;4.95;;;20.30;58.90;;;;;;5034936;28;20032;-73
2023/04/16 02:12:33;;;;;;;10.45;5.00;;;20.30;59.00;;;;;;5037198;28;20063;-71
2023/04/16 02:15:01;;;;;;;9.45;5.03;;;20.30;59.20;;;;;;5053854;28;20056;-71
2023/04/16 02:17:28;;;;;;;10.00;5.40;;;20.30;59.00;;;;;;5054416;28;20067;-71
2023/04/16 02:20:07;;;;;;;9.18;5.15;;;20.30;59.00;;;;;;5052049;28;20029;-71
2023/04/16 02:22:36;;;;;;;10.40;5.70;;;20.30;59.00;;;;;;5053262;28;20070;-74
2023/04/16 02:25:02;;;;;;;9.05;4.82;;;20.30;59.00;;;;;;5052657;28;20087;-73
2023/04/16 02:27:28;;;;;;;9.02;5.20;;;20.30;58.80;;;;;;5050669;28;20040;-73
2023/04/16 02:30:03;;;;;;;10.05;4.95;;;20.30;58.90;;;;;;5035229;28;20036;-73
2023/04/16 02:32:31;;;;;;;;;;;20.30;59.00;;;;;;5051751;28;20116;-73
2023/04/16 02:34:57;;;;;;;8.70;5.00;;;20.30;58.90;;;;;;5029523;28;19912;-73
2023/04/16 02:37:24;;;;;;;9.55;5.43;;;20.30;58.90;;;;;;5073963;28;20564;-73
2023/04/16 02:39:52;;;;;;;7.68;4.82;;;20.30;58.90;;;;;;5060453;28;20031;-73
2023/04/16 02:42:18;;;;;;;8.25;5.22;;;20.30;58.90;;;;;;5053869;28;20036;-73
2023/04/16 02:44:44;;;;;;;8.73;5.10;;;20.40;59.00;;;;;;5052401;28;20033;-73
2023/04/16 02:47:10;;;;;;;8.52;5.03;;;20.40;59.10;;;;;;5052488;28;20028;-73
2023/04/16 02:49:36;;;;;;;9.32;4.85;;;20.30;59.10;;;;;;5020122;28;20025;-73
2023/04/16 02:52:02;;;;;;;10.80;5.05;;;20.40;59.20;;;;;;5053454;28;20037;-73
2023/04/16 02:54:28;;;;;;;8.88;5.00;;;20.40;59.10;;;;;;5052184;28;20097;-73
2023/04/16 02:56:54;;;;;;;12.68;5.30;;;20.40;59.20;;;;;;5052518;28;20032;-73
2023/04/16 02:59:19;;;;;;;10.98;4.93;;;20.30;59.10;;;;;;5052564;28;20496;-74
2023/04/16 03:01:45;;;;;;;8.55;4.93;;;20.30;59.10;;;;;;5051964;28;20481;-73
2023/04/16 03:04:11;;;;;;;7.53;4.80;;;20.30;59.20;;;;;;5049576;28;20082;-73
2023/04/16 03:06:39;;;;;;;7.75;4.82;;;20.30;59.40;;;;;;5048707;28;20035;-74
2023/04/16 03:09:06;;;;;;;9.00;5.53;;;20.30;59.20;;;;;;5036143;28;20036;-73
2023/04/16 03:11:32;;;;;;;9.88;5.20;;;20.30;59.40;;;;;;5075743;28;20032;-74
2023/04/16 03:13:58;;;;;;;10.77;5.15;;;20.30;59.20;;;;;;5070914;28;20017;-73
2023/04/16 03:16:24;;;;;;;8.50;5.13;;;20.30;59.20;;;;;;5057939;28;20033;-73
2023/04/16 03:18:49;;;;;;;9.18;4.80;;;20.30;59.20;;;;;;5011768;28;20045;-73
2023/04/16 03:21:16;;;;;;;10.07;5.35;;;20.30;59.30;;;;;;5072557;28;20024;-74
2023/04/16 03:23:42;;;;;;;8.98;5.00;;;20.30;59.50;;;;;;5080467;28;20024;-73
2023/04/16 03:26:08;;;;;;;10.05;4.90;;;20.30;59.30;;;;;;5035263;28;20055;-73
2023/04/16 03:28:33;;;;;;;8.70;5.03;;;20.30;59.40;;;;;;5052449;28;20025;-73
2023/04/16 03:31:00;;;;;;;12.63;5.00;;;20.30;59.30;;;;;;5049886;28;20048;-74
2023/04/16 03:33:25;;;;;;;8.90;4.72;;;20.30;59.20;;;;;;5052146;28;20477;-73
2023/04/16 03:35:56;;;;;;;7.50;4.78;;;20.30;59.30;;;;;;5052283;28;20536;-73
2023/04/16 03:38:24;;;;;;;8.57;5.00;;;20.30;59.30;;;;;;5048721;28;20077;-73
2023/04/16 03:40:51;;;;;;;7.97;4.97;;;20.30;59.40;;;;;;5052036;28;20474;-73
2023/04/16 03:43:17;;;;;;;10.07;5.10;;;20.30;59.50;;;;;;5060747;28;20502;-74
2023/04/16 03:45:44;;;;;;;8.85;5.18;;;20.30;59.30;;;;;;5052075;28;20032;-73
2023/04/16 03:48:11;;;;;;;9.25;5.22;;;20.30;59.50;;;;;;5035859;28;20150;-73
2023/04/16 03:50:37;;;;;;;9.10;4.90;;;20.30;59.30;;;;;;5053316;28;20033;-73
2023/04/16 03:53:06;;;;;;;8.10;4.88;;;20.30;59.60;;;;;;5051182;28;20107;-73
2023/04/16 03:55:33;;;;;;;9.38;4.95;;;20.30;59.50;;;;;;5035619;28;20608;-71
2023/04/16 03:58:01;;;;;;;10.20;5.32;;;20.30;59.50;;;;;;5051492;28;20032;-73
2023/04/16 04:00:29;;;;;;;10.38;5.22;;;20.30;59.50;;;;;;5054965;28;20100;-73
2023/04/16 04:03:05;;;;;;;8.25;5.28;;;20.30;59.50;;;;;;5055878;28;20111;-73
2023/04/16 04:05:38;;;;;;;8.38;5.18;;;20.30;59.50;;;;;;5055382;28;20150;-73
2023/04/16 04:08:05;;;;;;;11.23;5.05;;;20.30;59.50;;;;;;5056458;28;20028;-71
2023/04/16 04:10:35;;;;;;;7.85;5.18;;;20.30;59.40;;;;;;5074601;28;20043;-73
2023/04/16 04:13:04;;;;;;;9.70;4.78;;;20.30;59.40;;;;;;5038096;28;20131;-73
2023/04/16 04:15:31;;;;;;;12.20;5.00;;;20.30;59.50;;;;;;5055356;28;20114;-73
2023/04/16 04:17:58;;;;;;;7.25;4.85;;;20.30;59.80;;;;;;5055463;28;20052;-73
2023/04/16 04:20:24;;;;;;;8.65;5.15;;;20.20;59.50;;;;;;5038583;28;20071;-70
2023/04/16 04:22:51;;;;;;;12.18;5.13;;;20.30;59.50;;;;;;5054050;28;20024;-70
2023/04/16 04:25:20;;;;;;;9.05;5.15;;;20.30;59.50;;;;;;5047395;28;20031;-74
2023/04/16 04:27:46;;;;;;;9.48;5.25;;;20.30;59.50;;;;;;5022746;28;20106;-73
2023/04/16 04:30:11;;;;;;;7.55;4.63;;;20.30;59.50;;;;;;5054409;28;20252;-74
2023/04/16 04:32:39;;;;;;;14.13;4.57;;;20.30;59.50;;;;;;5054187;28;20036;-73
2023/04/16 04:35:08;;;;;;;10.85;4.70;;;20.30;59.80;;;;;;5054636;28;20461;-74
2023/04/16 04:37:34;;;;;;;9.43;5.10;;;20.30;59.80;;;;;;5056085;28;20082;-73
2023/04/16 04:40:08;;;;;;;11.65;5.32;;;20.30;59.80;;;;;;5040527;28;20029;-74
2023/04/16 04:42:36;;;;;;;12.88;5.97;;;20.30;60.00;;;;;;5037379;28;20044;-74
2023/04/16 04:45:02;;;;;;;11.07;5.50;;;20.30;59.90;;;;;;5054648;28;20043;-75
2023/04/16 04:47:31;;;;;;;9.45;5.20;;;20.30;60.00;;;;;;5053439;28;20032;-73
2023/04/16 04:49:56;;;;;;;10.68;5.70;;;20.30;60.00;;;;;;5055563;28;20032;-73
2023/04/16 04:52:22;;;;;;;12.82;5.05;;;20.30;59.80;;;;;;5062799;28;20024;-73
2023/04/16 04:54:49;;;;;;;12.35;5.50;;;20.20;60.10;;;;;;5054329;28;20052;-73
2023/04/16 04:57:15;;;;;;;11.68;5.82;;;20.30;60.20;;;;;;5054123;28;20515;-73
2023/04/16 04:59:42;;;;;;;8.23;5.30;;;20.30;60.10;;;;;;5044736;28;20036;-71
2023/04/16 05:02:09;;;;;;;10.23;5.40;;;20.30;59.90;;;;;;5071045;28;20039;-71
2023/04/16 05:04:35;;;;;;;12.80;5.45;;;20.30;59.80;;;;;;5080035;28;20388;-71
2023/04/16 05:07:01;;;;;;;10.63;5.53;;;20.30;59.90;;;;;;5073238;28;20028;-70
2023/04/16 05:09:27;;;;;;;11.45;6.35;;;20.30;59.90;;;;;;5058028;28;20025;-71
2023/04/16 05:11:53;;;;;;;9.52;5.55;;;20.30;60.00;;;;;;5078939;28;20394;-74
2023/04/16 05:14:18;;;;;;;10.00;5.40;;;20.30;60.20;;;;;;5082248;28;20417;-73
2023/04/16 05:16:45;;;;;;;23.75;6.13;;;20.20;60.00;;;;;;5081325;28;20477;-73
2023/04/16 05:19:11;;;;;;;11.93;5.50;;;20.30;60.00;;;;;;5078215;28;20193;-73
2023/04/16 05:21:36;;;;;;;10.27;5.63;;;20.30;60.00;;;;;;5079161;28;20016;-74
2023/04/16 05:24:02;;;;;;;8.98;5.40;;;20.20;60.10;;;;;;5079023;28;20027;-74
2023/04/16 05:26:28;;;;;;;12.70;5.40;;;20.30;60.00;;;;;;5079551;28;20028;-73
2023/04/16 05:28:54;;;;;;;10.75;5.35;;;20.30;60.10;;;;;;5070483;22;20093;-72
2023/04/16 05:31:20;;;;;;;9.82;5.18;;;20.30;60.10;;;;;;5092973;28;20123;-71
2023/04/16 05:33:46;;;;;;;10.00;6.00;;;20.30;60.20;;;;;;5092126;28;20028;-72
2023/04/16 05:36:11;;;;;;;10.27;5.25;;;20.30;60.00;;;;;;5092192;28;20070;-72
2023/04/16 05:38:37;;;;;;;10.77;6.13;;;20.30;60.00;;;;;;5090064;28;20030;-71
2023/04/16 05:41:03;;;;;;;9.15;5.32;;;20.30;60.00;;;;;;5082466;28;20035;-71
2023/04/16 05:43:29;;;;;;;8.38;5.13;;;20.30;60.10;;;;;;5090600;28;20374;-72
2023/04/16 05:45:55;;;;;;;9.55;4.97;;;20.30;60.20;;;;;;5083204;28;20028;-72
2023/04/16 05:48:20;;;;;;;12.18;5.50;;;20.30;60.10;;;;;;5087163;28;20032;-70
2023/04/16 05:50:46;;;;;;;10.07;5.65;;;20.30;60.10;;;;;;5081313;28;20520;-71
2023/04/16 05:53:13;;;;;;;8.88;5.30;;;20.30;59.80;;;;;;5091851;28;20024;-71
2023/04/16 05:55:38;;;;;;;8.95;5.32;;;20.30;59.70;;;;;;5090657;28;20021;-71
2023/04/16 05:58:04;;;;;;;14.02;6.38;;;20.30;59.80;;;;;;5084212;28;20092;-71
2023/04/16 06:00:33;;;;;;;11.45;5.95;;;20.30;59.60;;;;;;5086404;28;20048;-71
2023/04/16 06:02:59;;;;;;;9.77;5.10;;;20.40;59.60;;;;;;5081751;28;20413;-71
2023/04/16 06:05:25;;;;;;;12.38;5.65;;;20.30;59.60;;;;;;5090251;28;20032;-70
2023/04/16 06:07:51;;;;;;;11.70;5.60;;;20.30;59.70;;;;;;5084199;28;20554;-72
2023/04/16 06:10:17;;;;;;;9.38;5.47;;;20.40;59.80;;;;;;5081553;28;20028;-71
2023/04/16 06:12:43;;;;;;;9.77;5.35;;;20.40;59.80;;;;;;5091781;28;20032;-71
2023/04/16 06:15:09;;;;;;;12.10;5.60;;;20.40;59.70;;;;;;5091151;28;20389;-71
2023/04/16 06:17:35;;;;;;;9.23;5.25;;;20.40;59.70;;;;;;5091591;28;20024;-71
2023/04/16 06:20:01;;;;;;;9.07;5.38;;;20.40;59.60;;;;;;5084401;28;20477;-70
2023/04/16 06:22:27;;;;;;;7.95;5.00;;;20.40;59.90;;;;;;5090646;28;20031;-70
2023/04/16 06:24:53;;;;;;;9.75;5.50;;;20.40;59.80;;;;;;5082241;28;20020;-71
2023/04/16 06:27:18;;;;;;;10.65;5.63;;;20.40;60.00;;;;;;5069230;28;20040;-71
2023/04/16 06:29:48;;;;;;;10.30;5.38;;;20.40;59.80;;;;;;5084894;28;20119;-71
2023/04/16 06:32:16;;;;;;;9.18;5.28;;;20.40;59.80;;;;;;5087802;28;20055;-72
2023/04/16 06:34:41;;;;;;;9.45;5.20;;;20.40;59.80;;;;;;5081684;28;20020;-72
2023/04/16 06:37:07;;;;;;;10.10;5.57;;;20.40;60.10;;;;;;5089269;28;20104;-72
2023/04/16 06:39:33;;;;;;;9.93;5.70;;;20.40;59.80;;;;;;5091181;28;20050;-72
2023/04/16 06:41:59;;;;;;;8.82;5.20;;;20.40;60.00;;;;;;5086621;28;20020;-72
2023/04/16 06:44:24;;;;;;;11.35;5.82;;;20.40;59.80;;;;;;5098467;28;20482;-72
2023/04/16 06:46:51;;;;;;;11.40;5.43;;;20.40;59.80;;;;;;5099030;28;20087;-71
2023/04/16 06:49:17;;;;;;;10.02;5.95;;;20.40;59.90;;;;;;5089810;28;20024;-71
2023/04/16 06:51:43;;;;;;;11.32;6.28;;;20.40;59.70;;;;;;5090886;28;20039;-71
2023/04/16 06:54:09;;;;;;;10.70;5.72;;;20.40;59.80;;;;;;5082233;28;20020;-72
2023/04/16 06:56:36;;;;;;;11.68;6.20;;;20.40;59.60;;;;;;5088922;28;20052;-71
2023/04/16 06:59:02;;;;;;;10.25;5.10;;;20.40;59.90;;;;;;5083170;28;20117;-71
2023/04/16 07:01:30;;;;;;;8.45;5.18;;;20.40;60.00;;;;;;5085695;28;20017;-71
2023/04/16 07:03:56;;;;;;;9.82;5.55;;;20.40;59.60;;;;;;5081565;28;20025;-72
2023/04/16 07:06:22;;;;;;;7.45;4.90;;;20.40;60.30;;;;;;5089407;28;20034;-72
2023/04/16 07:08:48;;;;;;;8.77;5.10;;;20.40;59.90;;;;;;5086880;28;20102;-71
2023/04/16 07:11:14;;;;;;;11.50;5.72;;;20.40;60.00;;;;;;5085090;28;20009;-72
2023/04/16 07:13:40;;;;;;;8.80;5.60;;;20.40;60.00;;;;;;5088601;28;20036;-72
2023/04/16 07:16:06;;;;;;;12.38;5.85;;;20.40;60.10;;;;;;5086386;28;20497;-72
2023/04/16 07:18:32;;;;;;;9.13;5.30;;;20.40;60.80;;;;;;5086960;28;20098;-71
2023/04/16 07:20:57;;;;;;;8.55;5.13;;;20.40;60.50;;;;;;5072423;28;20075;-71
2023/04/16 07:23:23;;;;;;;14.90;6.63;;;20.50;60.30;;;;;;5073324;28;20481;-70
2023/04/16 07:25:49;;;;;;;13.57;7.25;;;20.50;61.60;;;;;;5079921;28;20085;-70
2023/04/16 07:28:16;;;;;;;15.82;6.68;;;20.60;63.30;;;;;;5080100;28;20510;-70
2023/04/16 07:30:42;;;;;;;19.73;7.78;;;20.70;62.70;;;;;;5068570;28;20077;-70
2023/04/16 07:33:08;;;;;;;14.95;7.95;;;20.70;62.30;;;;;;5081647;28;20032;-70
2023/04/16 07:35:34;;;;;;;11.63;7.05;;;20.60;63.40;;;;;;5083199;28;20485;-70
2023/04/16 07:38:00;;;;;;;16.05;8.65;;;20.70;62.50;;;;;;5089690;28;20032;-70
2023/04/16 07:40:26;;;;;;;22.80;9.15;;;20.60;61.70;;;;;;5089892;28;20378;-70
2023/04/16 07:42:52;;;;;;;13.40;7.47;;;20.60;60.90;;;;;;5087882;28;20435;-70
2023/04/16 07:45:18;;;;;;;14.43;6.65;;;20.60;61.50;;;;;;5080001;28;20023;-70
2023/04/16 07:47:44;;;;;;;15.65;7.22;;;20.60;61.10;;;;;;5091139;28;20050;-70
2023/04/16 07:50:11;;;;;;;17.00;6.97;;;20.60;60.70;;;;;;5091356;28;20024;-70
2023/04/16 07:52:40;;;;;;;13.07;7.43;;;20.60;60.30;;;;;;5091937;28;20105;-70
2023/04/16 07:55:09;;;;;;;15.07;7.05;;;20.60;60.60;;;;;;5087708;28;20564;-70
2023/04/16 07:57:35;;;;;;;18.25;7.05;;;20.60;60.50;;;;;;5090027;28;20020;-70
2023/04/16 08:00:03;;;;;;;13.65;7.18;;;20.60;60.40;;;;;;5088000;28;20039;-69
2023/04/16 08:02:42;;;;;;;15.65;6.65;;;20.60;60.20;;;;;;5087699;28;20028;-69
2023/04/16 08:05:08;;;;;;;18.55;7.95;;;20.60;60.30;;;;;;5087823;28;20198;-69
2023/04/16 08:07:33;;;;;;;13.25;7.35;;;20.60;60.40;;;;;;5071363;28;20036;-69
2023/04/16 08:09:59;;;;;;;16.10;7.03;;;20.60;60.60;;;;;;5089506;28;20040;-69
2023/04/16 08:12:25;;;;;;;12.35;6.80;;;20.60;60.80;;;;;;5084755;28;20029;-69
2023/04/16 08:14:51;;;;;;;19.20;6.75;;;20.60;60.90;;;;;;5086302;28;20016;-70
2023/04/16 08:17:16;;;;;;;18.55;8.80;;;20.70;62.20;;;;;;5086001;28;20020;-70
2023/04/16 08:19:46;;;;;;;19.30;7.85;;;20.60;61.40;;;;;;5087649;28;20103;-70
2023/04/16 08:22:12;;;;;;;21.55;9.70;;;20.60;61.40;;;;;;5093188;28;20032;-72
2023/04/16 08:24:38;;;;;;;14.68;7.10;;;20.60;61.40;;;;;;5092321;28;20109;-71
2023/04/16 08:27:04;;;;;;;16.73;7.28;;;20.60;61.30;;;;;;5093769;28;20477;-72
2023/04/16 08:29:30;;;;;;;17.75;7.88;;;20.60;61.20;;;;;;5094044;28;20035;-71
2023/04/16 08:31:56;;;;;;;13.10;7.53;;;20.50;61.50;;;;;;5094412;28;20388;-71
2023/04/16 08:34:22;;;;;;;16.10;8.18;;;20.50;60.90;;;;;;5093954;28;20077;-71
2023/04/16 08:36:48;;;;;;;13.52;7.70;;;20.50;60.80;;;;;;5094333;28;20557;-71
2023/04/16 08:39:14;;;;;;;12.43;7.68;;;20.50;60.70;;;;;;5094126;28;20062;-71
2023/04/16 08:41:45;;;;;;;14.13;7.20;;;20.50;60.80;;;;;;5094142;28;20028;-71
2023/04/16 08:44:18;;;;;;;14.80;7.60;;;20.50;60.50;;;;;;5105942;28;20020;-71
2023/04/16 08:46:46;;;;;;;15.40;7.57;;;20.50;60.50;;;;;;5113077;28;20034;-71
2023/04/16 08:49:16;;;;;;;12.25;6.90;;;20.50;60.60;;;;;;5113295;28;20019;-70
2023/04/16 08:51:48;;;;;;;14.73;7.43;;;20.50;60.50;;;;;;5089372;28;20036;-71
2023/04/16 08:54:31;;;;;;;11.65;7.10;;;20.50;60.40;;;;;;5075948;28;20059;-71
2023/04/16 08:56:58;;;;;;;11.02;7.18;;;20.50;60.30;;;;;;5094000;28;20032;-71
2023/04/16 08:59:25;;;;;;;16.55;7.28;;;20.50;60.60;;;;;;5092902;28;20064;-71
2023/04/16 09:01:56;;;;;;;15.02;7.05;;;20.50;60.40;;;;;;5092786;28;20028;-71
2023/04/16 09:04:27;;;;;;;11.68;6.75;;;20.50;60.60;;;;;;5080959;28;20303;-71
2023/04/16 09:06:55;;;;;;;13.57;7.07;;;20.50;60.50;;;;;;5075834;28;20515;-71
2023/04/16 09:09:21;;;;;;;13.73;6.85;;;20.50;60.60;;;;;;5093477;28;20032;-71
2023/04/16 09:11:50;;;;;;;14.75;7.30;;;20.50;61.10;;;;;;5093438;28;20504;-71
2023/04/16 09:14:17;;;;;;;13.73;7.57;;;20.50;60.30;;;;;;5092095;28;20048;-71
2023/04/16 09:16:46;;;;;;;13.18;6.82;;;20.50;60.70;;;;;;5093415;28;20397;-71
2023/04/16 09:19:13;;;;;;;15.40;7.78;;;20.50;60.00;;;;;;5113925;28;20083;-71
2023/04/16 09:21:45;;;;;;;11.98;6.82;;;20.50;60.20;;;;;;5077936;28;20036;-70
2023/04/16 09:24:11;;;;;;;11.02;6.18;;;20.50;60.10;;;;;;5093022;28;20020;-71
2023/04/16 09:26:37;;;;;;;12.45;7.10;;;20.50;60.20;;;;;;5091688;28;20031;-71
2023/04/16 09:29:03;;;;;;;15.57;7.13;;;20.50;60.10;;;;;;5091782;28;20032;-71
2023/04/16 09:31:29;;;;;;;11.95;6.72;;;20.50;60.00;;;;;;5093104;28;20020;-70
2023/04/16 09:34:08;;;;;;;12.35;6.78;;;20.50;59.90;;;;;;5095693;28;20073;-70
2023/04/16 09:36:35;;;;;;;11.97;6.57;;;20.50;59.90;;;;;;5111902;28;20480;-71
2023/04/16 09:39:02;;;;;;;12.68;6.78;;;20.50;60.00;;;;;;5092117;28;20269;-71
2023/04/16 09:41:31;;;;;;;;;;;20.40;60.10;;;;;;5093442;28;20099;-71
2023/04/16 09:44:00;;;;;;;10.35;6.60;;;20.50;59.90;;;;;;5092647;28;19908;-72
2023/04/16 09:46:29;;;;;;;11.23;6.22;;;20.50;59.70;;;;;;5092855;28;20124;-72
2023/04/16 09:48:55;;;;;;;14.13;7.13;;;20.50;59.70;;;;;;5092887;28;20028;-71
2023/04/16 09:51:21;;;;;;;12.93;6.85;;;20.50;60.00;;;;;;5090804;28;20031;-71
2023/04/16 09:53:52;;;;;;;14.10;6.88;;;20.50;60.20;;;;;;5076347;28;20055;-71
2023/04/16 09:56:23;;;;;;;12.88;7.05;;;20.50;60.30;;;;;;5070481;28;20020;-72
2023/04/16 09:58:49;;;;;;;13.38;6.65;;;20.50;60.10;;;;;;5072416;28;20036;-71
2023/04/16 10:01:17;;;;;;;15.88;7.18;;;20.60;60.20;;;;;;5072392;28;20112;-71
2023/04/16 10:03:43;;;;;;;12.70;8.18;;;20.60;62.10;;;;;;5072721;28;20036;-71
2023/04/16 10:06:20;;;;;;;17.58;8.50;;;20.60;64.10;;;;;;5084166;28;20401;-72
2023/04/16 10:08:48;;;;;;;13.95;8.50;;;20.70;62.80;;;;;;5092076;28;20036;-71
2023/04/16 10:11:18;;;;;;;17.23;8.65;;;20.80;66.00;;;;;;5091139;28;20509;-71
2023/04/16 10:13:46;;;;;;;17.52;8.82;;;20.80;66.30;;;;;;5090031;28;20028;-71
2023/04/16 10:16:12;;;;;;;23.13;10.20;;;20.80;64.60;;;;;;5091285;28;20056;-71
2023/04/16 10:18:43;;;;;;;14.70;6.95;;;20.80;66.70;;;;;;5091991;28;20024;-71
2023/04/16 10:21:14;;;;;;;15.68;7.88;;;20.80;60.70;;;;;;5071965;28;20624;-71
2023/04/16 10:23:43;;;;;;;12.65;7.70;;;20.80;61.70;;;;;;5070720;28;20078;-71
2023/04/16 10:26:09;;;;;;;16.70;8.57;;;20.80;61.00;;;;;;5079811;28;20082;-71
2023/04/16 10:28:38;;;;;;;11.43;8.05;;;20.80;61.60;;;;;;5083617;28;20024;-72
2023/04/16 10:31:08;;;;;;;14.73;7.80;;;20.80;62.10;;;;;;5092053;28;20082;-73
2023/04/16 10:33:35;;;;;;;;;;;20.70;62.20;;;;;;5089255;28;20110;-70
2023/04/16 10:36:11;;;;;;;16.40;8.30;;;20.70;61.70;;;;;;5090143;28;19953;-70
2023/04/16 10:38:39;;;;;;;13.00;8.02;;;20.70;62.00;;;;;;5091652;28;20032;-71
2023/04/16 10:41:07;;;;;;;13.25;8.60;;;20.70;61.80;;;;;;5091696;28;20023;-71
2023/04/16 10:43:39;;;;;;;16.80;9.07;;;20.70;61.50;;;;;;5090081;28;20087;-71
2023/04/16 10:46:25;;;;;;;17.98;8.40;;;20.70;61.30;;;;;;5073986;28;20032;-71
2023/04/16 10:48:58;;;;;;;11.43;8.07;;;20.70;61.20;;;;;;5084255;28;20095;-70
2023/04/16 10:51:28;;;;;;;11.80;8.20;;;20.70;61.20;;;;;;5090208;28;20131;-71
2023/04/16 10:53:55;;;;;;;;;;;20.70;60.50;;;;;;5090824;28;20039;-71
2023/04/16 10:56:29;;;;;;;15.23;9.02;;;20.70;60.50;;;;;;5090507;28;19908;-71
2023/04/16 10:58:57;;;;;;;13.55;9.75;;;20.70;60.60;;;;;;5094556;28;20035;-72
2023/04/16 11:01:35;;;;;;;14.05;9.30;;;20.70;60.30;;;;;;5092067;28;20028;-71
2023/04/16 11:04:37;;;;;;;12.95;9.15;;;20.70;60.90;;;;;;5090046;28;20028;-71
2023/04/16 11:07:15;;;;;;;13.43;8.60;;;20.70;59.50;;;;;;5089372;28;20020;-71
2023/04/16 11:10:00;;;;;;;14.25;8.57;;;20.70;59.20;;;;;;5088037;28;20032;-72
2023/04/16 11:12:46;;;;;;;12.40;9.00;;;20.60;60.10;;;;;;5084651;28;20048;-72
2023/04/16 11:15:14;;;;;;;12.40;9.13;;;20.70;60.40;;;;;;5085473;28;20021;-71
2023/04/16 11:17:45;;;;;;;13.82;9.23;;;20.60;59.30;;;;;;5083794;28;20186;-71
2023/04/16 11:20:25;;;;;;;14.25;8.68;;;20.60;59.30;;;;;;5088703;28;20431;-71
2023/04/16 11:22:53;;;;;;;12.35;8.70;;;20.70;59.50;;;;;;5091048;28;20027;-71
2023/04/16 11:25:22;;;;;;;13.07;8.77;;;20.60;59.90;;;;;;5084575;28;20504;-71
2023/04/16 11:27:49;;;;;;;11.77;8.15;;;20.60;60.20;;;;;;5071086;28;20032;-71
2023/04/16 11:30:16;;;;;;;13.43;8.05;;;20.60;60.60;;;;;;5085568;22;20195;-74
2023/04/16 11:32:43;;;;;;;11.35;7.90;;;20.60;60.30;;;;;;5070677;28;20123;-74
2023/04/16 11:35:17;;;;;;;12.82;8.50;;;20.60;60.20;;;;;;5052499;28;20077;-73
2023/04/16 11:37:47;;;;;;;15.90;9.27;;;20.60;60.20;;;;;;5071196;28;20044;-74
2023/04/16 11:40:13;;;;;;;11.15;7.63;;;20.60;60.10;;;;;;5070348;28;20032;-75
2023/04/16 11:42:40;;;;;;;16.50;9.07;;;20.60;60.60;;;;;;5052891;28;20021;-75
2023/04/16 11:45:10;;;;;;;17.45;8.52;;;20.60;59.90;;;;;;5044912;28;20107;-75
2023/04/16 11:47:50;;;;;;;13.45;8.45;;;20.60;60.90;;;;;;5048098;28;20039;-75
2023/04/16 11:50:23;;;;;;;11.10;7.78;;;20.60;59.80;;;;;;5036147;28;20093;-76
2023/04/16 11:52:51;;;;;;;12.27;8.20;;;20.60;59.70;;;;;;5053243;28;20033;-75
2023/04/16 11:55:17;;;;;;;11.27;7.50;;;20.60;60.70;;;;;;5070645;28;20024;-75
2023/04/16 11:57:44;;;;;;;12.20;7.43;;;20.60;60.60;;;;;;5071033;28;20031;-75
2023/04/16 12:00:12;;;;;;;13.50;8.15;;;20.60;60.90;;;;;;5071052;28;20024;-75
2023/04/16 12:02:39;;;;;;;12.82;7.93;;;20.60;60.00;;;;;;5070808;28;20032;-74
2023/04/16 12:05:27;;;;;;;10.82;7.25;;;20.60;59.90;;;;;;5070535;28;20428;-74
2023/04/16 12:07:54;;;;;;;11.65;7.60;;;20.60;60.00;;;;;;5056024;28;20041;-76
2023/04/16 12:10:19;;;;;;;11.88;7.93;;;20.60;60.30;;;;;;5068738;28;20474;-74
2023/04/16 12:12:45;;;;;;;10.77;7.30;;;20.60;60.00;;;;;;5067730;28;20031;-75
2023/04/16 12:15:11;;;;;;;12.75;7.68;;;20.70;60.70;;;;;;5070114;28;20478;-74
2023/04/16 12:17:39;;;;;;;11.57;7.45;;;20.60;60.10;;;;;;5070876;28;20442;-74
2023/04/16 12:20:11;;;;;;;13.05;7.15;;;20.60;60.60;;;;;;5050254;28;20098;-74
2023/04/16 12:22:45;;;;;;;9.73;6.82;;;20.60;60.60;;;;;;5039689;28;20060;-74
2023/04/16 12:25:13;;;;;;;11.45;6.68;;;20.60;60.40;;;;;;5037520;28;20113;-73
2023/04/16 12:27:50;;;;;;;10.20;7.10;;;20.80;60.60;;;;;;5054615;28;20036;-73
2023/04/16 12:30:18;;;;;;;11.85;6.63;;;20.80;60.80;;;;;;5071838;28;20117;-74
2023/04/16 12:32:46;;;;;;;11.18;7.07;;;20.70;60.60;;;;;;5055209;28;20608;-72
2023/04/16 12:35:12;;;;;;;10.00;6.90;;;20.70;60.60;;;;;;5051717;28;20501;-74
2023/04/16 12:37:40;;;;;;;13.25;6.68;;;20.70;60.50;;;;;;5071930;28;20025;-75
2023/04/16 12:40:06;;;;;;;13.02;6.85;;;20.70;60.40;;;;;;5050288;28;20025;-73
2023/04/16 12:42:35;;;;;;;9.15;6.53;;;20.70;60.80;;;;;;5053989;28;20588;-74